createdAt,value
2023-01-20T00:02:28.536Z,-1.14
2023-01-20T00:05:14.313Z,-1.07
2023-01-20T00:08:00.038Z,-1.06
2023-01-20T00:10:45.527Z,-1.06
2023-01-20T00:13:31.264Z,-1.02
2023-01-20T00:16:16.986Z,-1.00
2023-01-20T00:19:02.453Z,-0.98
2023-01-20T00:21:47.818Z,-0.96
2023-01-20T00:24:33.250Z,-0.94
2023-01-20T00:27:20.388Z,-0.93
2023-01-20T00:30:06.611Z,-0.91
2023-01-20T00:32:52.389Z,-0.90
2023-01-20T00:35:38.646Z,-0.90
2023-01-20T00:38:24.101Z,-0.90
2023-01-20T00:41:10.537Z,-0.91
2023-01-20T00:43:55.789Z,-0.93
2023-01-20T00:46:41.256Z,-0.96
2023-01-20T00:49:26.468Z,-0.96
2023-01-20T00:52:11.976Z,-0.99
2023-01-20T00:54:57.373Z,-0.99
2023-01-20T00:57:42.539Z,-0.99
2023-01-20T01:00:28.023Z,-0.99
2023-01-20T01:03:13.126Z,-0.98
2023-01-20T01:06:17.908Z,-0.99
2023-01-20T01:09:03.566Z,-0.99
2023-01-20T01:11:49.226Z,-0.98
2023-01-20T01:14:34.789Z,-0.99
2023-01-20T01:17:21.323Z,-1.00
2023-01-20T01:20:07.239Z,-1.01
2023-01-20T01:22:52.685Z,-1.02
2023-01-20T01:25:38.274Z,-1.05
2023-01-20T01:28:23.986Z,-1.07
2023-01-20T01:31:10.229Z,-1.10
2023-01-20T01:33:55.808Z,-1.14
2023-01-20T01:36:41.197Z,-1.18
2023-01-20T01:39:27.823Z,-1.24
2023-01-20T01:42:18.664Z,-1.28
2023-01-20T01:45:10.457Z,-1.32
2023-01-20T01:48:05.956Z,-1.38
2023-01-20T01:50:58.837Z,-1.43
2023-01-20T01:53:54.089Z,-1.47
2023-01-20T01:56:42.322Z,-1.50
2023-01-20T01:59:27.981Z,-1.53
2023-01-20T02:02:13.769Z,-1.55
2023-01-20T02:05:02.102Z,-1.54
2023-01-20T02:07:48.262Z,-1.54
2023-01-20T02:10:33.732Z,-1.57
2023-01-20T02:13:19.149Z,-1.61
2023-01-20T02:16:07.856Z,-1.63
2023-01-20T02:18:58.852Z,-1.60
2023-01-20T02:22:11.791Z,-1.60
2023-01-20T02:25:19.111Z,-1.63
2023-01-20T02:28:16.774Z,-1.65
2023-01-20T02:31:05.030Z,-1.68
2023-01-20T02:34:09.786Z,-1.71
2023-01-20T02:37:00.348Z,-1.74
2023-01-20T02:40:05.472Z,-1.71
2023-01-20T02:43:17.702Z,-1.70
2023-01-20T02:46:16.032Z,-1.72
2023-01-20T02:49:16.484Z,-1.73
2023-01-20T02:52:15.473Z,-1.75
2023-01-20T02:55:06.691Z,-1.78
2023-01-20T02:57:59.559Z,-1.78
2023-01-20T03:00:55.956Z,-1.79
2023-01-20T03:03:46.766Z,-1.84
2023-01-20T03:06:38.130Z,-1.84
2023-01-20T03:09:41.009Z,-1.85
2023-01-20T03:12:38.363Z,-1.87
2023-01-20T03:15:37.989Z,-1.87
2023-01-20T03:18:23.833Z,-1.87
2023-01-20T03:21:10.500Z,-1.88
2023-01-20T03:24:01.598Z,-1.88
2023-01-20T03:26:47.274Z,-1.90
2023-01-20T03:29:32.839Z,-1.93
2023-01-20T03:32:22.763Z,-1.93
2023-01-20T03:35:08.972Z,-1.93
2023-01-20T03:37:54.284Z,-1.92
2023-01-20T03:40:53.729Z,-1.87
2023-01-20T03:44:08.585Z,-1.89
2023-01-20T03:47:31.601Z,-1.93
2023-01-20T03:50:45.023Z,-2.01
2023-01-20T03:53:45.580Z,-2.07
2023-01-20T03:56:47.141Z,-2.11
2023-01-20T03:59:39.064Z,-2.12
2023-01-20T04:02:28.206Z,-2.17
2023-01-20T04:05:14.872Z,-2.20
2023-01-20T04:08:03.901Z,-2.19
2023-01-20T04:10:51.822Z,-2.22
2023-01-20T04:13:37.496Z,-2.24
2023-01-20T04:16:25.450Z,-2.24
2023-01-20T04:19:10.828Z,-2.23
2023-01-20T04:22:03.593Z,-2.21
2023-01-20T04:25:08.362Z,-2.22
2023-01-20T04:27:54.052Z,-2.24
2023-01-20T04:30:39.475Z,-2.23
2023-01-20T04:33:25.002Z,-2.15
2023-01-20T04:36:10.759Z,-2.17
2023-01-20T04:38:56.366Z,-2.20
2023-01-20T04:41:41.640Z,-2.21
2023-01-20T04:44:27.033Z,-2.22
2023-01-20T04:47:12.393Z,-2.21
2023-01-20T04:49:57.609Z,-2.22
2023-01-20T04:52:43.919Z,-2.27
2023-01-20T04:55:29.447Z,-2.36
2023-01-20T04:58:14.869Z,-2.36
2023-01-20T05:01:02.627Z,-2.40
2023-01-20T05:03:48.031Z,-2.41
2023-01-20T05:06:33.657Z,-2.52
2023-01-20T05:09:19.349Z,-2.66
2023-01-20T05:12:05.554Z,-2.74
2023-01-20T05:14:50.950Z,-2.89
2023-01-20T05:17:36.296Z,-3.03
2023-01-20T05:20:21.775Z,-3.13
2023-01-20T05:23:07.180Z,-3.21
2023-01-20T05:25:53.864Z,-3.30
2023-01-20T05:28:39.072Z,-3.41
2023-01-20T05:31:24.465Z,-3.43
2023-01-20T05:34:11.273Z,-3.38
2023-01-20T05:36:56.493Z,-3.21
2023-01-20T05:39:41.833Z,-3.16
2023-01-20T05:42:27.172Z,-3.17
2023-01-20T05:45:12.445Z,-3.22
2023-01-20T05:47:59.705Z,-3.33
2023-01-20T05:50:45.147Z,-3.41
2023-01-20T05:53:30.721Z,-3.46
2023-01-20T05:56:16.342Z,-3.48
2023-01-20T05:59:02.162Z,-3.54
2023-01-20T06:01:47.842Z,-3.67
2023-01-20T06:04:33.110Z,-3.76
2023-01-20T06:07:18.414Z,-3.82
2023-01-20T06:10:04.104Z,-3.85
2023-01-20T06:12:55.425Z,-3.79
2023-01-20T06:15:41.036Z,-3.71
2023-01-20T06:18:26.467Z,-3.73
2023-01-20T06:21:12.429Z,-3.89
2023-01-20T06:23:58.067Z,-3.93
2023-01-20T06:26:43.500Z,-4.07
2023-01-20T06:29:28.803Z,-4.09
2023-01-20T06:32:14.223Z,-4.13
2023-01-20T06:34:59.511Z,-4.21
2023-01-20T06:37:44.844Z,-4.22
2023-01-20T06:40:30.264Z,-4.30
2023-01-20T06:43:15.552Z,-4.23
2023-01-20T06:46:02.684Z,-4.25
2023-01-20T06:48:49.867Z,-4.22
2023-01-20T06:51:35.487Z,-4.21
2023-01-20T06:54:21.120Z,-4.26
2023-01-20T06:57:06.621Z,-4.38
2023-01-20T06:59:52.033Z,-4.49
2023-01-20T07:02:37.380Z,-4.60
2023-01-20T07:05:22.727Z,-4.64
2023-01-20T07:08:07.994Z,-4.77
2023-01-20T07:10:53.288Z,-4.88
2023-01-20T07:13:38.678Z,-4.73
2023-01-20T07:16:24.745Z,-4.59
2023-01-20T07:19:11.425Z,-4.66
2023-01-20T07:21:56.931Z,-4.72
2023-01-20T07:24:42.094Z,-4.81
2023-01-20T07:27:27.402Z,-4.92
2023-01-20T07:30:12.917Z,-4.98
2023-01-20T07:32:58.542Z,-5.07
2023-01-20T07:35:44.123Z,-5.08
2023-01-20T07:38:30.121Z,-5.22
2023-01-20T07:41:18.203Z,-5.22
2023-01-20T07:44:03.665Z,-5.18
2023-01-20T07:46:51.666Z,-5.25
2023-01-20T07:49:37.041Z,-5.30
2023-01-20T07:52:22.453Z,-5.21
2023-01-20T07:55:08.051Z,-5.10
2023-01-20T07:57:53.707Z,-5.12
2023-01-20T08:00:38.951Z,-5.21
2023-01-20T08:03:27.370Z,-5.25
2023-01-20T08:06:16.130Z,-5.16
2023-01-20T08:09:02.867Z,-5.16
2023-01-20T08:11:48.341Z,-5.29
2023-01-20T08:14:34.427Z,-5.42
2023-01-20T08:17:21.686Z,-5.45
2023-01-20T08:20:08.185Z,-5.59
2023-01-20T08:22:53.591Z,-5.72
2023-01-20T08:25:38.882Z,-5.82
2023-01-20T08:28:24.357Z,-5.74
2023-01-20T08:31:16.357Z,-5.61
2023-01-20T08:34:02.981Z,-5.64
2023-01-20T08:36:50.169Z,-5.68
2023-01-20T08:39:35.476Z,-5.73
2023-01-20T08:42:20.826Z,-5.63
2023-01-20T08:45:07.939Z,-5.49
2023-01-20T08:47:53.684Z,-5.44
2023-01-20T08:50:39.409Z,-5.45
2023-01-20T08:53:25.877Z,-5.31
2023-01-20T08:56:13.220Z,-5.15
2023-01-20T08:58:59.023Z,-4.90
2023-01-20T09:01:45.330Z,-4.94
2023-01-20T09:04:31.119Z,-4.96
2023-01-20T09:07:18.313Z,-4.98
2023-01-20T09:10:04.924Z,-4.98
2023-01-20T09:12:50.531Z,-4.78
2023-01-20T09:15:35.868Z,-4.73
2023-01-20T09:18:21.295Z,-4.57
2023-01-20T09:21:07.137Z,-4.41
2023-01-20T09:23:52.488Z,-4.36
2023-01-20T09:26:40.723Z,-4.38
2023-01-20T09:29:26.258Z,-4.23
2023-01-20T09:32:13.312Z,-4.12
2023-01-20T09:34:58.990Z,-4.08
2023-01-20T09:38:02.732Z,-4.06
2023-01-20T09:41:37.526Z,-4.10
2023-01-20T09:44:42.284Z,-3.98
2023-01-20T09:47:31.488Z,-3.86
2023-01-20T09:50:41.800Z,-3.80
2023-01-20T09:53:48.763Z,-3.70
2023-01-20T09:56:41.438Z,-3.56
2023-01-20T09:59:41.296Z,-3.41
2023-01-20T10:02:33.879Z,-3.27
2023-01-20T10:05:33.005Z,-3.17
2023-01-20T10:08:30.119Z,-3.10
2023-01-20T10:11:19.750Z,-2.98
2023-01-20T10:14:23.757Z,-2.86
2023-01-20T10:17:27.966Z,-2.78
2023-01-20T10:20:21.981Z,-2.77
2023-01-20T10:23:26.885Z,-2.78
2023-01-20T10:26:18.854Z,-2.67
2023-01-20T10:29:13.636Z,-2.50
2023-01-20T10:32:01.204Z,-2.23
2023-01-20T10:34:48.460Z,-2.05
2023-01-20T10:37:36.213Z,-1.76
2023-01-20T10:40:42.216Z,-1.27
2023-01-20T10:43:27.892Z,-1.05
2023-01-20T10:46:41.150Z,-0.99
2023-01-20T10:49:57.588Z,-0.85
2023-01-20T10:52:55.652Z,-0.75
2023-01-20T10:55:47.063Z,-0.54
2023-01-20T10:58:35.835Z,-0.42
2023-01-20T11:01:21.680Z,-0.38
2023-01-20T11:04:18.438Z,-0.28
2023-01-20T11:07:08.459Z,-0.20
2023-01-20T11:09:54.530Z,-0.15
2023-01-20T11:12:42.980Z,-0.08
2023-01-20T11:15:34.368Z,0.05
2023-01-20T11:18:23.032Z,0.13
2023-01-20T11:21:24.272Z,0.32
2023-01-20T11:24:43.357Z,0.48
2023-01-20T11:27:35.665Z,0.65
2023-01-20T11:30:27.515Z,0.83
2023-01-20T11:33:22.852Z,0.93
2023-01-20T11:36:23.928Z,0.98
2023-01-20T11:39:26.512Z,1.07
2023-01-20T11:42:38.364Z,1.20
2023-01-20T11:45:26.540Z,1.37
2023-01-20T11:48:16.438Z,1.49
2023-01-20T11:51:03.272Z,1.56
2023-01-20T11:53:49.024Z,1.68
2023-01-20T11:56:45.871Z,1.87
2023-01-20T11:59:33.225Z,1.96
2023-01-20T12:02:23.631Z,2.01
2023-01-20T12:05:27.128Z,2.12
2023-01-20T12:08:21.470Z,2.23
2023-01-20T12:11:08.382Z,2.31
2023-01-20T12:14:23.559Z,2.36
2023-01-20T12:17:08.989Z,2.49
2023-01-20T12:20:12.086Z,2.54
2023-01-20T12:23:21.487Z,2.64
2023-01-20T12:26:10.026Z,2.70
2023-01-20T12:29:04.718Z,2.77
2023-01-20T12:31:50.663Z,2.81
2023-01-20T12:34:35.981Z,2.86
2023-01-20T12:37:46.823Z,2.94
2023-01-20T12:40:35.144Z,2.99
2023-01-20T12:43:48.397Z,3.06
2023-01-20T12:47:00.587Z,3.06
2023-01-20T12:50:09.772Z,3.10
2023-01-20T12:53:15.984Z,3.16
2023-01-20T12:56:08.708Z,3.22
2023-01-20T12:59:08.137Z,3.35
2023-01-20T13:02:05.796Z,3.43
2023-01-20T13:05:06.944Z,3.47
2023-01-20T13:08:01.992Z,3.58
2023-01-20T13:10:56.404Z,3.65
2023-01-20T13:14:07.952Z,3.74
2023-01-20T13:17:21.574Z,3.78
2023-01-20T13:20:21.039Z,3.91
2023-01-20T13:23:07.349Z,4.00
2023-01-20T13:25:53.805Z,4.04
2023-01-20T13:28:51.459Z,4.08
2023-01-20T13:31:37.023Z,4.10
2023-01-20T13:34:32.162Z,4.14
2023-01-20T13:37:24.699Z,4.15
2023-01-20T13:40:38.240Z,4.13
2023-01-20T13:43:24.052Z,4.13
2023-01-20T13:46:09.384Z,4.12
2023-01-20T13:49:20.646Z,4.07
2023-01-20T13:52:06.133Z,4.03
2023-01-20T13:54:51.504Z,4.00
2023-01-20T13:57:37.326Z,3.97
2023-01-20T14:00:23.114Z,3.97
2023-01-20T14:03:24.696Z,3.95
2023-01-20T14:06:11.427Z,3.96
2023-01-20T14:08:56.981Z,3.95
2023-01-20T14:11:50.082Z,3.93
2023-01-20T14:14:42.189Z,3.97
2023-01-20T14:17:27.751Z,3.97
2023-01-20T14:20:23.621Z,3.98
2023-01-20T14:23:34.013Z,4.00
2023-01-20T14:26:29.141Z,4.08
2023-01-20T14:29:20.253Z,4.13
2023-01-20T14:32:21.960Z,4.15
2023-01-20T14:35:24.350Z,4.20
2023-01-20T14:38:17.527Z,4.24
2023-01-20T14:41:02.928Z,4.28
2023-01-20T14:43:48.257Z,4.29
2023-01-20T14:46:36.308Z,4.28
2023-01-20T14:49:26.159Z,4.26
2023-01-20T14:52:31.270Z,4.27
2023-01-20T14:55:31.096Z,4.26
2023-01-20T14:58:18.405Z,4.22
2023-01-20T15:01:06.390Z,4.26
2023-01-20T15:04:00.935Z,4.31
2023-01-20T15:06:56.058Z,4.37
2023-01-20T15:09:56.634Z,4.42
2023-01-20T15:12:48.363Z,4.43
2023-01-20T15:15:33.742Z,4.32
2023-01-20T15:18:19.675Z,4.26
2023-01-20T15:21:20.701Z,4.16
2023-01-20T15:24:15.355Z,4.04
2023-01-20T15:27:02.714Z,3.84
2023-01-20T15:30:15.837Z,3.63
2023-01-20T15:33:01.806Z,3.50
2023-01-20T15:35:52.851Z,3.38
2023-01-20T15:38:38.582Z,3.25
2023-01-20T15:41:24.482Z,3.12
2023-01-20T15:44:09.837Z,3.02
2023-01-20T15:46:57.685Z,2.90
2023-01-20T15:49:43.442Z,2.80
2023-01-20T15:52:28.868Z,2.70
2023-01-20T15:55:16.958Z,2.57
2023-01-20T15:58:03.079Z,2.47
2023-01-20T16:00:48.609Z,2.37
2023-01-20T16:03:35.593Z,2.37
2023-01-20T16:06:25.181Z,2.34
2023-01-20T16:09:25.897Z,2.29
2023-01-20T16:12:16.483Z,2.21
2023-01-20T16:15:02.218Z,2.10
2023-01-20T16:17:47.859Z,2.00
2023-01-20T16:20:34.931Z,1.85
2023-01-20T16:23:20.715Z,1.70
2023-01-20T16:26:22.564Z,1.47
2023-01-20T16:29:09.528Z,1.34
2023-01-20T16:31:54.928Z,1.21
2023-01-20T16:34:40.249Z,1.04
2023-01-20T16:37:25.923Z,0.94
2023-01-20T16:40:17.913Z,0.87
2023-01-20T16:43:03.529Z,0.77
2023-01-20T16:45:54.621Z,0.78
2023-01-20T16:48:40.605Z,0.70
2023-01-20T16:51:28.252Z,0.68
2023-01-20T16:54:13.630Z,0.72
2023-01-20T16:56:59.056Z,0.78
2023-01-20T16:59:44.580Z,0.91
2023-01-20T17:02:30.411Z,0.96
2023-01-20T17:05:15.919Z,1.04
2023-01-20T17:08:02.504Z,1.07
2023-01-20T17:10:48.256Z,1.19
2023-01-20T17:13:33.674Z,1.17
2023-01-20T17:16:20.270Z,1.21
2023-01-20T17:19:06.170Z,1.29
2023-01-20T17:21:51.731Z,1.32
2023-01-20T17:24:39.324Z,1.37
2023-01-20T17:27:25.128Z,1.35
2023-01-20T17:30:11.109Z,1.29
2023-01-20T17:32:56.706Z,1.19
2023-01-20T17:35:43.192Z,1.10
2023-01-20T17:38:30.246Z,0.95
2023-01-20T17:41:15.791Z,0.86
2023-01-20T17:44:01.772Z,0.84
2023-01-20T17:46:49.169Z,0.76
2023-01-20T17:49:34.781Z,0.72
2023-01-20T17:52:22.306Z,0.64
2023-01-20T17:55:08.009Z,0.58
2023-01-20T17:57:53.635Z,0.58
2023-01-20T18:00:39.609Z,0.58
2023-01-20T18:03:24.910Z,0.60
2023-01-20T18:06:12.517Z,0.61
2023-01-20T18:09:01.312Z,0.61
2023-01-20T18:11:46.912Z,0.57
2023-01-20T18:14:32.353Z,0.51
2023-01-20T18:17:17.700Z,0.40
2023-01-20T18:20:03.278Z,0.31
2023-01-20T18:22:50.360Z,0.28
2023-01-20T18:25:36.006Z,0.28
2023-01-20T18:28:21.250Z,0.22
2023-01-20T18:31:12.110Z,0.15
2023-01-20T18:34:00.150Z,0.13
2023-01-20T18:36:46.409Z,0.17
2023-01-20T18:39:32.018Z,0.26
2023-01-20T18:42:17.613Z,0.21
2023-01-20T18:45:03.077Z,0.10
2023-01-20T18:47:48.892Z,-0.04
2023-01-20T18:50:34.873Z,-0.08
2023-01-20T18:53:20.442Z,-0.09
2023-01-20T18:56:08.765Z,-0.07
2023-01-20T18:58:55.139Z,-0.22
2023-01-20T19:01:41.591Z,-0.23
2023-01-20T19:04:26.954Z,-0.22
2023-01-20T19:07:12.351Z,-0.21
2023-01-20T19:09:57.802Z,-0.17
2023-01-20T19:12:43.112Z,-0.18
2023-01-20T19:15:28.831Z,-0.15
2023-01-20T19:18:13.972Z,-0.08
2023-01-20T19:21:15.061Z,-0.12
2023-01-20T19:24:05.926Z,-0.24
2023-01-20T19:26:51.431Z,-0.22
2023-01-20T19:29:36.862Z,-0.19
2023-01-20T19:32:22.314Z,-0.20
2023-01-20T19:35:08.673Z,-0.23
2023-01-20T19:37:54.521Z,-0.33
2023-01-20T19:40:40.080Z,-0.36
2023-01-20T19:43:25.309Z,-0.34
2023-01-20T19:46:13.345Z,-0.33
2023-01-20T19:48:59.380Z,-0.18
2023-01-20T19:51:44.790Z,-0.11
2023-01-20T19:54:31.979Z,-0.07
2023-01-20T19:57:17.557Z,-0.14
2023-01-20T20:00:04.917Z,-0.27
2023-01-20T20:02:56.879Z,-0.40
2023-01-20T20:05:44.080Z,-0.43
2023-01-20T20:08:29.447Z,-0.44
2023-01-20T20:11:14.921Z,-0.31
2023-01-20T20:14:03.088Z,-0.33
2023-01-20T20:16:49.380Z,-0.30
2023-01-20T20:19:35.101Z,-0.21
2023-01-20T20:22:20.821Z,-0.17
2023-01-20T20:25:09.863Z,-0.13
2023-01-20T20:27:57.765Z,-0.12
2023-01-20T20:30:43.301Z,-0.03
2023-01-20T20:33:28.801Z,0.01
2023-01-20T20:36:15.242Z,0.16
2023-01-20T20:39:02.707Z,0.21
2023-01-20T20:41:48.372Z,0.26
2023-01-20T20:44:33.963Z,0.37
2023-01-20T20:47:20.324Z,0.44
2023-01-20T20:50:06.340Z,0.46
2023-01-20T20:52:52.795Z,0.61
2023-01-20T20:55:42.211Z,0.75
2023-01-20T20:58:27.535Z,0.82
2023-01-20T21:01:15.445Z,0.95
2023-01-20T21:04:03.154Z,1.14
2023-01-20T21:06:48.495Z,1.21
2023-01-20T21:09:34.977Z,1.27
2023-01-20T21:12:20.427Z,1.34
2023-01-20T21:15:06.565Z,1.41
2023-01-20T21:17:52.062Z,1.50
2023-01-20T21:20:37.341Z,1.59
2023-01-20T21:23:22.846Z,1.72
2023-01-20T21:26:12.604Z,1.90
2023-01-20T21:29:02.179Z,2.04
2023-01-20T21:31:48.072Z,2.20
2023-01-20T21:34:33.894Z,2.28
2023-01-20T21:37:20.652Z,2.41
2023-01-20T21:40:06.626Z,2.48
2023-01-20T21:42:54.518Z,2.55
2023-01-20T21:45:39.933Z,2.65
2023-01-20T21:48:43.781Z,2.75
2023-01-20T21:51:48.489Z,2.82
2023-01-20T21:54:34.735Z,2.91
2023-01-20T21:57:21.271Z,3.01
2023-01-20T22:00:08.758Z,3.08
2023-01-20T22:02:57.408Z,3.11
2023-01-20T22:05:42.798Z,3.14
2023-01-20T22:08:28.205Z,3.15
2023-01-20T22:11:13.570Z,3.18
2023-01-20T22:13:59.181Z,3.20
2023-01-20T22:16:44.790Z,3.25
2023-01-20T22:19:30.482Z,3.27
2023-01-20T22:22:16.006Z,3.26
2023-01-20T22:25:01.391Z,3.29
2023-01-20T22:27:48.288Z,3.35
2023-01-20T22:30:34.033Z,3.40
2023-01-20T22:33:19.232Z,3.45
2023-01-20T22:36:05.196Z,3.48
2023-01-20T22:38:52.208Z,3.48
2023-01-20T22:41:37.696Z,3.50
2023-01-20T22:44:22.931Z,3.54
2023-01-20T22:47:10.952Z,3.62
2023-01-20T22:49:56.976Z,3.62
2023-01-20T22:52:42.456Z,3.61
2023-01-20T22:55:27.695Z,3.67
2023-01-20T22:58:13.012Z,3.68
2023-01-20T23:00:59.073Z,3.72
2023-01-20T23:03:45.618Z,3.78
2023-01-20T23:06:33.192Z,3.81
2023-01-20T23:09:19.058Z,3.88
2023-01-20T23:12:04.996Z,3.88
2023-01-20T23:14:59.675Z,3.91
2023-01-20T23:17:46.484Z,3.91
2023-01-20T23:20:31.838Z,3.93
2023-01-20T23:23:17.564Z,3.95
2023-01-20T23:26:05.577Z,3.98
2023-01-20T23:28:53.700Z,3.98
2023-01-20T23:31:39.282Z,3.94
2023-01-20T23:34:24.622Z,3.96
2023-01-20T23:37:10.444Z,3.97
2023-01-20T23:39:55.854Z,3.98
2023-01-20T23:42:41.577Z,4.00
2023-01-20T23:45:28.856Z,4.02
2023-01-20T23:48:14.471Z,4.04
2023-01-20T23:51:00.902Z,4.08
2023-01-20T23:53:46.547Z,4.08
2023-01-20T23:56:32.056Z,4.12
2023-01-20T23:59:17.414Z,4.18
